createdAt,value
2022-09-12T00:00:50.977Z,22.40
2022-09-12T00:03:47.859Z,23.20
2022-09-12T00:06:45.115Z,21.40
2022-09-12T00:09:42.254Z,17.40
2022-09-12T00:12:40.197Z,20.20
2022-09-12T00:15:43.449Z,23.00
2022-09-12T00:18:40.641Z,21.40
2022-09-12T00:21:38.720Z,21.20
2022-09-12T00:24:35.942Z,26.80
2022-09-12T00:27:32.909Z,19.00
2022-09-12T00:30:30.738Z,21.60
2022-09-12T00:33:27.745Z,26.60
2022-09-12T00:36:25.410Z,26.60
2022-09-12T00:39:23.203Z,25.80
2022-09-12T00:42:20.861Z,23.60
2022-09-12T00:45:23.293Z,24.80
2022-09-12T00:48:22.957Z,23.40
2022-09-12T00:51:20.018Z,27.80
2022-09-12T00:54:19.385Z,27.60
2022-09-12T00:57:16.576Z,30.00
2022-09-12T01:00:16.371Z,24.20
2022-09-12T01:03:15.424Z,23.60
2022-09-12T01:06:21.602Z,28.60
2022-09-12T01:09:21.645Z,19.20
2022-09-12T01:12:20.002Z,24.00
2022-09-12T01:15:17.064Z,31.60
2022-09-12T01:18:19.879Z,26.40
2022-09-12T01:21:38.480Z,28.00
2022-09-12T01:25:25.465Z,26.40
2022-09-12T01:28:53.545Z,28.80
2022-09-12T01:32:10.535Z,26.80
2022-09-12T01:35:08.456Z,23.60
2022-09-12T01:38:09.173Z,30.40
2022-09-12T01:41:26.045Z,28.80
2022-09-12T01:44:45.414Z,28.20
2022-09-12T01:47:48.319Z,33.40
2022-09-12T01:51:15.753Z,30.40
2022-09-12T01:54:21.616Z,29.40
2022-09-12T01:57:25.177Z,25.40
2022-09-12T02:00:22.207Z,28.80
2022-09-12T02:03:27.788Z,28.40
2022-09-12T02:06:40.750Z,26.20
2022-09-12T02:09:43.690Z,30.40
2022-09-12T02:12:49.425Z,29.80
2022-09-12T02:15:50.345Z,29.80
2022-09-12T02:18:52.467Z,27.60
2022-09-12T02:21:54.788Z,27.80
2022-09-12T02:24:55.962Z,28.20
2022-09-12T02:28:09.157Z,27.60
2022-09-12T02:31:13.650Z,32.80
2022-09-12T02:34:22.342Z,24.80
2022-09-12T02:37:23.833Z,29.00
2022-09-12T02:40:21.057Z,25.80
2022-09-12T02:43:18.438Z,31.00
2022-09-12T02:46:25.844Z,22.40
2022-09-12T02:49:22.914Z,31.20
2022-09-12T02:52:20.148Z,28.40
2022-09-12T02:55:17.249Z,29.40
2022-09-12T02:58:16.996Z,34.20
2022-09-12T03:01:16.627Z,26.60
2022-09-12T03:04:26.350Z,36.20
2022-09-12T03:07:23.710Z,29.20
2022-09-12T03:10:36.681Z,37.00
2022-09-12T03:14:12.422Z,42.20
2022-09-12T03:17:24.081Z,34.60
2022-09-12T03:20:48.809Z,41.60
2022-09-12T03:24:04.443Z,43.40
2022-09-12T03:27:20.376Z,38.00
2022-09-12T03:30:18.023Z,41.80
2022-09-12T03:33:16.785Z,36.40
2022-09-12T03:36:17.050Z,38.80
2022-09-12T03:39:13.981Z,41.00
2022-09-12T03:42:10.976Z,38.20
2022-09-12T03:45:08.833Z,33.60
2022-09-12T03:48:06.329Z,29.60
2022-09-12T03:51:04.230Z,36.80
2022-09-12T03:54:01.177Z,31.40
2022-09-12T03:56:58.226Z,35.20
2022-09-12T03:59:55.256Z,40.80
2022-09-12T04:02:57.093Z,43.40
2022-09-12T04:05:54.157Z,35.60
2022-09-12T04:08:52.273Z,37.00
2022-09-12T04:11:49.187Z,33.80
2022-09-12T04:14:46.141Z,41.40
2022-09-12T04:17:43.065Z,42.20
2022-09-12T04:20:40.320Z,39.00
2022-09-12T04:23:38.196Z,34.00
2022-09-12T04:26:35.307Z,40.80
2022-09-12T04:29:32.129Z,43.00
2022-09-12T04:32:31.197Z,42.80
2022-09-12T04:35:28.006Z,38.40
2022-09-12T04:38:25.483Z,35.40
2022-09-12T04:41:36.359Z,46.60
2022-09-12T04:44:33.009Z,38.60
2022-09-12T04:47:30.081Z,46.80
2022-09-12T04:50:27.002Z,50.80
2022-09-12T04:53:24.259Z,34.20
2022-09-12T04:56:21.295Z,49.40
2022-09-12T04:59:19.303Z,40.00
2022-09-12T05:02:16.324Z,34.20
2022-09-12T05:05:13.044Z,38.20
2022-09-12T05:08:10.201Z,45.20
2022-09-12T05:11:08.850Z,38.80
2022-09-12T05:14:06.248Z,39.20
2022-09-12T05:17:04.210Z,42.60
2022-09-12T05:20:01.834Z,46.80
2022-09-12T05:22:59.819Z,47.40
2022-09-12T05:25:58.388Z,41.80
2022-09-12T05:28:55.185Z,44.80
2022-09-12T05:31:53.051Z,43.00
2022-09-12T05:34:50.891Z,44.40
2022-09-12T05:37:48.065Z,44.80
2022-09-12T05:40:46.049Z,41.20
2022-09-12T05:43:43.037Z,45.40
2022-09-12T05:46:44.304Z,40.80
2022-09-12T05:49:41.846Z,47.80
2022-09-12T05:52:39.414Z,38.60
2022-09-12T05:55:36.740Z,39.60
2022-09-12T05:58:35.286Z,50.60
2022-09-12T06:01:33.359Z,53.40
2022-09-12T06:04:29.885Z,37.80
2022-09-12T06:07:27.474Z,49.60
2022-09-12T06:10:26.367Z,55.20
2022-09-12T06:13:23.174Z,51.40
2022-09-12T06:16:26.064Z,47.20
2022-09-12T06:19:23.962Z,52.40
2022-09-12T06:22:21.359Z,49.20
2022-09-12T06:25:18.325Z,43.40
2022-09-12T06:28:15.223Z,44.80
2022-09-12T06:31:17.278Z,50.20
2022-09-12T06:34:14.934Z,52.00
2022-09-12T06:37:11.950Z,52.00
2022-09-12T06:40:10.274Z,46.60
2022-09-12T06:43:07.109Z,53.20
2022-09-12T06:46:04.472Z,55.00
2022-09-12T06:49:02.424Z,56.00
2022-09-12T06:52:00.091Z,51.20
2022-09-12T06:54:57.077Z,52.60
2022-09-12T06:57:55.466Z,41.60
2022-09-12T07:00:56.010Z,48.60
2022-09-12T07:04:00.204Z,52.00
2022-09-12T07:06:57.356Z,53.80
2022-09-12T07:09:54.393Z,44.80
2022-09-12T07:12:51.140Z,52.00
2022-09-12T07:15:48.082Z,53.60
2022-09-12T07:18:46.493Z,53.20
2022-09-12T07:21:43.110Z,56.80
2022-09-12T07:24:41.296Z,51.80
2022-09-12T07:27:38.268Z,53.20
2022-09-12T07:30:36.778Z,48.80
2022-09-12T07:33:34.046Z,51.20
2022-09-12T07:36:31.292Z,49.60
2022-09-12T07:39:28.281Z,42.20
2022-09-12T07:42:25.193Z,37.80
2022-09-12T07:45:22.198Z,49.20
2022-09-12T07:48:19.377Z,50.60
2022-09-12T07:51:17.389Z,51.80
2022-09-12T07:54:14.737Z,51.60
2022-09-12T07:57:12.416Z,46.00
2022-09-12T08:00:10.901Z,42.00
2022-09-12T08:03:10.553Z,53.20
2022-09-12T08:06:11.587Z,46.80
2022-09-12T08:09:09.307Z,46.40
2022-09-12T08:12:06.309Z,43.60
2022-09-12T08:15:06.387Z,50.80
2022-09-12T08:18:03.270Z,52.20
2022-09-12T08:21:00.788Z,46.40
2022-09-12T08:24:03.760Z,45.00
2022-09-12T08:27:01.307Z,48.20
2022-09-12T08:29:58.556Z,39.60
2022-09-12T08:32:55.277Z,41.80
2022-09-12T08:35:52.171Z,37.80
2022-09-12T08:38:50.916Z,46.60
2022-09-12T08:41:49.179Z,36.60
2022-09-12T08:45:16.014Z,38.40
2022-09-12T08:48:13.158Z,32.20
2022-09-12T08:51:10.892Z,33.60
2022-09-12T08:54:17.425Z,33.60
2022-09-12T08:57:15.110Z,30.60
2022-09-12T09:00:16.061Z,35.00
2022-09-12T09:03:45.742Z,33.20
2022-09-12T09:06:53.983Z,30.00
2022-09-12T09:10:47.198Z,35.60
2022-09-12T09:14:05.224Z,34.60
2022-09-12T09:17:02.359Z,29.20
2022-09-12T09:20:27.866Z,36.60
2022-09-12T09:23:31.107Z,29.40
2022-09-12T09:26:31.726Z,29.20
2022-09-12T09:29:44.625Z,34.40
2022-09-12T09:32:42.277Z,31.60
2022-09-12T09:35:44.896Z,28.60
2022-09-12T09:38:54.758Z,26.80
2022-09-12T09:42:30.085Z,30.80
2022-09-12T09:45:30.325Z,27.60
2022-09-12T09:48:44.708Z,26.00
2022-09-12T09:51:42.288Z,24.80
2022-09-12T09:54:59.897Z,21.80
2022-09-12T09:57:57.326Z,26.60
2022-09-12T10:00:58.892Z,21.40
2022-09-12T10:03:56.425Z,20.80
2022-09-12T10:07:00.790Z,22.80
2022-09-12T10:10:05.783Z,21.80
2022-09-12T10:13:18.334Z,23.60
2022-09-12T10:16:23.685Z,21.00
2022-09-12T10:19:25.526Z,23.20
2022-09-12T10:22:24.289Z,22.80
2022-09-12T10:25:21.597Z,16.40
2022-09-12T10:28:40.486Z,21.40
2022-09-12T10:31:52.349Z,24.80
2022-09-12T10:34:51.314Z,20.80
2022-09-12T10:38:03.080Z,22.80
2022-09-12T10:41:10.369Z,19.20
2022-09-12T10:44:18.550Z,21.40
2022-09-12T10:47:24.499Z,20.60
2022-09-12T10:50:26.755Z,14.60
2022-09-12T10:53:33.753Z,22.00
2022-09-12T10:56:32.723Z,16.80
2022-09-12T11:00:18.217Z,19.20
2022-09-12T11:03:17.015Z,23.20
2022-09-12T11:06:15.301Z,21.20
2022-09-12T11:09:40.572Z,21.60
2022-09-12T11:12:59.448Z,20.60
2022-09-12T11:15:59.868Z,20.20
2022-09-12T11:19:25.334Z,18.80
2022-09-12T11:23:09.038Z,22.80
2022-09-12T11:26:15.349Z,15.20
2022-09-12T11:29:36.887Z,18.20
2022-09-12T11:32:39.347Z,17.00
2022-09-12T11:35:42.010Z,21.00
2022-09-12T11:39:05.555Z,18.20
2022-09-12T11:42:03.376Z,20.80
2022-09-12T11:45:40.569Z,16.80
2022-09-12T11:49:02.354Z,15.00
2022-09-12T11:52:17.139Z,17.20
2022-09-12T11:55:19.019Z,16.20
2022-09-12T11:58:16.791Z,14.80
2022-09-12T12:01:17.587Z,15.00
2022-09-12T12:04:15.950Z,16.20
2022-09-12T12:07:13.505Z,10.00
2022-09-12T12:10:27.844Z,14.00
2022-09-12T12:13:34.286Z,12.40
2022-09-12T12:16:35.274Z,16.40
2022-09-12T12:19:36.347Z,11.00
2022-09-12T12:22:33.822Z,15.20
2022-09-12T12:25:50.716Z,15.25
2022-09-12T12:28:51.197Z,16.00
2022-09-12T12:32:02.029Z,18.50
2022-09-12T12:35:11.273Z,17.40
2022-09-12T12:38:36.240Z,13.00
2022-09-12T12:41:42.974Z,12.40
2022-09-12T12:44:47.363Z,13.25
2022-09-12T12:47:44.967Z,12.40
2022-09-12T12:50:42.708Z,14.00
2022-09-12T12:53:40.670Z,13.40
2022-09-12T12:56:42.067Z,10.00
2022-09-12T12:59:47.333Z,11.75
2022-09-12T13:02:56.049Z,15.80
2022-09-12T13:05:57.575Z,12.50
2022-09-12T13:09:08.386Z,15.20
2022-09-12T13:12:25.297Z,17.20
2022-09-12T13:15:38.201Z,10.75
2022-09-12T13:18:48.717Z,12.00
2022-09-12T13:21:55.857Z,12.00
2022-09-12T13:24:53.688Z,11.25
2022-09-12T13:27:57.776Z,11.00
2022-09-12T13:31:09.152Z,9.75
2022-09-12T13:34:06.897Z,10.50
2022-09-12T13:37:28.918Z,9.50
2022-09-12T13:41:05.859Z,10.00
2022-09-12T13:44:02.642Z,11.20
2022-09-12T13:46:59.726Z,9.50
2022-09-12T13:49:56.637Z,13.50
2022-09-12T13:52:55.702Z,12.00
2022-09-12T13:55:54.529Z,10.00
2022-09-12T13:58:58.884Z,13.00
2022-09-12T14:01:56.729Z,6.25
2022-09-12T14:05:10.401Z,13.50
2022-09-12T14:08:08.436Z,11.75
2022-09-12T14:11:08.853Z,13.80
2022-09-12T14:14:06.614Z,14.00
2022-09-12T14:17:23.981Z,10.75
2022-09-12T14:20:23.424Z,11.75
2022-09-12T14:23:31.024Z,11.75
2022-09-12T14:26:34.177Z,11.00
2022-09-12T14:29:33.360Z,10.50
2022-09-12T14:32:30.708Z,9.75
2022-09-12T14:35:27.253Z,12.25
2022-09-12T14:38:45.037Z,10.25
2022-09-12T14:41:42.342Z,11.50
2022-09-12T14:44:39.535Z,19.80
2022-09-12T14:47:39.967Z,13.25
2022-09-12T14:50:37.513Z,14.80
2022-09-12T14:53:36.070Z,7.00
2022-09-12T14:56:40.891Z,9.50
2022-09-12T14:59:40.819Z,12.75
2022-09-12T15:02:37.655Z,12.00
2022-09-12T15:05:34.385Z,10.00
2022-09-12T15:08:31.804Z,10.00
2022-09-12T15:11:28.887Z,14.40
2022-09-12T15:14:25.915Z,12.25
2022-09-12T15:17:22.466Z,10.50
2022-09-12T15:20:19.532Z,8.50
2022-09-12T15:23:28.703Z,11.75
2022-09-12T15:26:27.617Z,9.25
2022-09-12T15:29:24.442Z,9.50
2022-09-12T15:32:29.757Z,9.00
2022-09-12T15:35:32.859Z,9.75
2022-09-12T15:38:29.919Z,9.75
2022-09-12T15:41:32.338Z,9.50
2022-09-12T15:44:29.506Z,8.50
2022-09-12T15:47:26.454Z,9.50
2022-09-12T15:50:23.621Z,8.50
2022-09-12T15:53:20.814Z,7.25
2022-09-12T15:56:19.445Z,10.00
2022-09-12T15:59:16.462Z,9.50
2022-09-12T16:02:14.097Z,9.25
2022-09-12T16:05:17.126Z,8.00
2022-09-12T16:08:14.811Z,9.75
2022-09-12T16:11:20.168Z,8.50
2022-09-12T16:14:18.496Z,9.00
2022-09-12T16:17:15.402Z,8.50
2022-09-12T16:20:13.050Z,8.75
2022-09-12T16:23:13.510Z,9.00
2022-09-12T16:26:10.637Z,9.00
2022-09-12T16:29:07.678Z,7.25
2022-09-12T16:32:05.134Z,2.00
2022-09-12T16:35:02.909Z,8.00
2022-09-12T16:38:00.530Z,8.75
2022-09-12T16:41:04.607Z,9.25
2022-09-12T16:44:01.734Z,7.00
2022-09-12T16:46:58.417Z,10.75
2022-09-12T16:49:55.822Z,7.00
2022-09-12T16:52:52.776Z,9.50
2022-09-12T16:55:50.051Z,10.50
2022-09-12T16:58:48.017Z,6.00
2022-09-12T17:01:45.318Z,9.25
2022-09-12T17:04:42.630Z,6.00
2022-09-12T17:07:39.610Z,8.25
2022-09-12T17:10:40.948Z,9.50
2022-09-12T17:14:02.625Z,7.75
2022-09-12T17:16:55.730Z,9.00
2022-09-12T17:19:53.726Z,11.50
2022-09-12T17:22:50.852Z,7.75
2022-09-12T17:25:48.465Z,8.00
2022-09-12T17:28:45.883Z,8.75
2022-09-12T17:31:43.066Z,9.25
2022-09-12T17:34:40.900Z,8.50
2022-09-12T17:37:37.871Z,10.00
2022-09-12T17:40:58.438Z,10.00
2022-09-12T17:43:57.261Z,8.00
2022-09-12T17:46:54.750Z,9.00
2022-09-12T17:50:05.177Z,8.50
2022-09-12T17:53:10.898Z,21.20
2022-09-12T17:56:07.934Z,31.40
2022-09-12T17:59:05.033Z,15.60
2022-09-12T18:02:13.881Z,13.75
2022-09-12T18:05:11.009Z,10.25
2022-09-12T18:08:07.441Z,12.00
2022-09-12T18:11:05.668Z,22.60
2022-09-12T18:14:02.945Z,72.60
2022-09-12T18:17:00.338Z,72.80
2022-09-12T18:19:57.716Z,70.80
2022-09-12T18:22:54.992Z,51.00
2022-09-12T18:25:57.698Z,51.20
2022-09-12T18:28:55.298Z,47.60
2022-09-12T18:31:52.900Z,24.60
2022-09-12T18:34:50.040Z,21.20
2022-09-12T18:37:47.171Z,16.40
2022-09-12T18:40:45.206Z,12.80
2022-09-12T18:43:43.510Z,10.60
2022-09-12T18:46:41.073Z,18.60
2022-09-12T18:49:38.354Z,12.00
2022-09-12T18:52:35.929Z,10.20
2022-09-12T18:55:33.247Z,10.80
2022-09-12T18:58:30.978Z,12.20
2022-09-12T19:01:32.530Z,9.60
2022-09-12T19:04:30.004Z,11.20
2022-09-12T19:07:27.070Z,12.60
2022-09-12T19:10:25.699Z,11.60
2022-09-12T19:13:23.119Z,12.00
2022-09-12T19:16:25.144Z,15.20
2022-09-12T19:19:23.618Z,11.60
2022-09-12T19:22:21.098Z,14.80
2022-09-12T19:25:18.880Z,16.20
2022-09-12T19:28:16.238Z,14.80
2022-09-12T19:31:15.375Z,16.20
2022-09-12T19:34:13.592Z,17.60
2022-09-12T19:37:10.894Z,14.80
2022-09-12T19:40:08.872Z,15.00
2022-09-12T19:43:09.261Z,13.80
2022-09-12T19:46:06.993Z,16.00
2022-09-12T19:49:04.526Z,18.60
2022-09-12T19:52:02.225Z,16.60
2022-09-12T19:54:59.986Z,15.80
2022-09-12T19:57:56.601Z,16.80
2022-09-12T20:00:54.697Z,18.60
2022-09-12T20:03:53.804Z,22.20
2022-09-12T20:06:50.807Z,16.80
2022-09-12T20:09:47.929Z,21.40
2022-09-12T20:12:45.019Z,17.60
2022-09-12T20:15:42.187Z,23.00
2022-09-12T20:18:39.688Z,18.80
2022-09-12T20:21:36.849Z,19.60
2022-09-12T20:24:34.143Z,20.60
2022-09-12T20:27:31.771Z,19.60
2022-09-12T20:30:29.028Z,19.60
2022-09-12T20:33:25.916Z,21.20
2022-09-12T20:36:22.739Z,19.00
2022-09-12T20:39:21.430Z,21.60
2022-09-12T20:42:18.927Z,18.20
2022-09-12T20:45:15.964Z,22.80
2022-09-12T20:48:14.372Z,19.40
2022-09-12T20:51:12.287Z,21.80
2022-09-12T20:54:10.494Z,17.20
2022-09-12T20:57:07.837Z,23.00
2022-09-12T21:00:07.243Z,22.60
2022-09-12T21:03:05.240Z,20.20
2022-09-12T21:06:02.011Z,19.40
2022-09-12T21:08:59.909Z,19.60
2022-09-12T21:11:57.173Z,16.20
2022-09-12T21:14:54.823Z,20.60
2022-09-12T21:17:52.418Z,18.40
2022-09-12T21:20:53.919Z,17.80
2022-09-12T21:23:51.106Z,18.60
2022-09-12T21:26:47.832Z,18.40
2022-09-12T21:29:45.052Z,19.00
2022-09-12T21:32:42.168Z,19.80
2022-09-12T21:35:39.207Z,17.20
2022-09-12T21:38:35.939Z,15.60
2022-09-12T21:41:34.452Z,19.00
2022-09-12T21:44:31.803Z,17.60
2022-09-12T21:47:28.798Z,17.60
2022-09-12T21:50:28.488Z,17.40
2022-09-12T21:53:25.983Z,18.00
2022-09-12T21:56:23.497Z,15.60
2022-09-12T21:59:21.134Z,17.20
2022-09-12T22:02:17.676Z,17.40
2022-09-12T22:05:15.358Z,17.40
2022-09-12T22:08:13.167Z,14.80
2022-09-12T22:11:10.138Z,19.40
2022-09-12T22:14:07.046Z,18.60
2022-09-12T22:17:04.239Z,14.40
2022-09-12T22:20:01.048Z,17.20
2022-09-12T22:23:16.394Z,16.60
2022-09-12T22:26:14.293Z,16.80
2022-09-12T22:29:11.315Z,19.00
2022-09-12T22:32:07.887Z,14.80
2022-09-12T22:35:06.283Z,16.60
2022-09-12T22:38:02.981Z,15.80
2022-09-12T22:41:04.157Z,20.00
2022-09-12T22:44:01.070Z,17.20
2022-09-12T22:46:58.127Z,17.60
2022-09-12T22:49:54.870Z,20.60
2022-09-12T22:52:52.673Z,16.60
2022-09-12T22:55:50.541Z,19.00
2022-09-12T22:58:48.152Z,18.00
2022-09-12T23:01:45.219Z,17.80
2022-09-12T23:04:42.207Z,15.80
2022-09-12T23:07:39.056Z,19.20
2022-09-12T23:10:36.844Z,18.40
2022-09-12T23:13:33.967Z,15.60
2022-09-12T23:16:32.204Z,15.40
2022-09-12T23:19:29.441Z,15.80
2022-09-12T23:22:27.051Z,12.80
2022-09-12T23:25:24.310Z,15.60
2022-09-12T23:28:21.536Z,18.00
2022-09-12T23:31:19.715Z,17.00
2022-09-12T23:34:17.236Z,17.40
2022-09-12T23:37:14.580Z,15.60
2022-09-12T23:40:12.306Z,16.00
2022-09-12T23:43:10.242Z,15.60
2022-09-12T23:46:07.486Z,15.40
2022-09-12T23:49:05.046Z,13.80
2022-09-12T23:52:02.148Z,16.20
2022-09-12T23:54:58.879Z,14.00
2022-09-12T23:57:56.377Z,14.20
